sensor_id;sensor_type;location;lat;lon;timestamp;pressure;altitude;pressure_sealevel;temperature;humidity
22649;BME280;11491;41.942;24.220;2023-09-19T00:00:08;90418.19;;;9.47;84.56
22649;BME280;11491;41.942;24.220;2023-09-19T00:02:38;90425.56;;;9.41;84.31
22649;BME280;11491;41.942;24.220;2023-09-19T00:05:05;90426.81;;;9.44;84.00
22649;BME280;11491;41.942;24.220;2023-09-19T00:07:33;90429.13;;;9.54;82.78
22649;BME280;11491;41.942;24.220;2023-09-19T00:10:03;90430.03;;;9.58;82.51
22649;BME280;11491;41.942;24.220;2023-09-19T00:12:31;90426.47;;;9.54;82.67
22649;BME280;11491;41.942;24.220;2023-09-19T00:14:58;90421.22;;;9.37;83.69
22649;BME280;11491;41.942;24.220;2023-09-19T00:17:27;90427.38;;;9.28;84.32
22649;BME280;11491;41.942;24.220;2023-09-19T00:19:55;90427.84;;;9.31;84.48
22649;BME280;11491;41.942;24.220;2023-09-19T00:22:23;90419.84;;;9.31;83.65
22649;BME280;11491;41.942;24.220;2023-09-19T00:24:51;90425.81;;;9.27;84.75
22649;BME280;11491;41.942;24.220;2023-09-19T00:27:18;90418.28;;;9.30;84.67
22649;BME280;11491;41.942;24.220;2023-09-19T00:29:45;90421.91;;;9.25;84.81
22649;BME280;11491;41.942;24.220;2023-09-19T00:32:11;90424.88;;;9.23;84.40
22649;BME280;11491;41.942;24.220;2023-09-19T00:34:39;90414.38;;;9.27;84.64
22649;BME280;11491;41.942;24.220;2023-09-19T00:37:07;90418.47;;;9.24;84.80
22649;BME280;11491;41.942;24.220;2023-09-19T00:39:36;90411.09;;;9.21;84.41
22649;BME280;11491;41.942;24.220;2023-09-19T00:42:04;90411.25;;;9.25;84.80
22649;BME280;11491;41.942;24.220;2023-09-19T00:44:30;90404.19;;;9.20;84.18
22649;BME280;11491;41.942;24.220;2023-09-19T00:47:00;90399.88;;;9.37;82.30
22649;BME280;11491;41.942;24.220;2023-09-19T00:49:27;90395.72;;;9.18;82.51
22649;BME280;11491;41.942;24.220;2023-09-19T00:51:57;90401.34;;;9.25;82.90
22649;BME280;11491;41.942;24.220;2023-09-19T00:54:25;90400.56;;;9.25;82.95
22649;BME280;11491;41.942;24.220;2023-09-19T00:56:54;90406.81;;;9.29;82.57
22649;BME280;11491;41.942;24.220;2023-09-19T00:59:22;90401.53;;;9.20;83.52
22649;BME280;11491;41.942;24.220;2023-09-19T01:01:49;90383.69;;;9.12;84.10
22649;BME280;11491;41.942;24.220;2023-09-19T01:04:19;90393.06;;;9.18;84.15
22649;BME280;11491;41.942;24.220;2023-09-19T01:06:46;90396.38;;;9.15;84.03
22649;BME280;11491;41.942;24.220;2023-09-19T01:09:19;90396.75;;;9.05;84.27
22649;BME280;11491;41.942;24.220;2023-09-19T01:11:48;90392.06;;;9.02;84.05
22649;BME280;11491;41.942;24.220;2023-09-19T01:14:24;90394.38;;;9.03;84.47
22649;BME280;11491;41.942;24.220;2023-09-19T01:17:01;90393.63;;;9.03;84.61
22649;BME280;11491;41.942;24.220;2023-09-19T01:23:02;90389.22;;;9.07;83.79
22649;BME280;11491;41.942;24.220;2023-09-19T01:25:55;90387.63;;;9.06;83.81
22649;BME280;11491;41.942;24.220;2023-09-19T01:28:43;90390.34;;;8.97;84.61
22649;BME280;11491;41.942;24.220;2023-09-19T01:31:14;90384.25;;;8.97;84.83
22649;BME280;11491;41.942;24.220;2023-09-19T01:33:54;90389.88;;;8.95;85.08
22649;BME280;11491;41.942;24.220;2023-09-19T01:36:23;90371.03;;;8.62;85.24
22649;BME280;11491;41.942;24.220;2023-09-19T01:38:50;90385.50;;;8.91;83.97
22649;BME280;11491;41.942;24.220;2023-09-19T01:41:24;90386.38;;;8.74;84.60
22649;BME280;11491;41.942;24.220;2023-09-19T01:43:52;90382.50;;;8.62;85.51
22649;BME280;11491;41.942;24.220;2023-09-19T01:46:24;90394.06;;;8.75;84.58
22649;BME280;11491;41.942;24.220;2023-09-19T01:48:59;90391.75;;;8.65;85.35
22649;BME280;11491;41.942;24.220;2023-09-19T01:51:34;90392.53;;;8.57;85.87
22649;BME280;11491;41.942;24.220;2023-09-19T01:54:09;90390.22;;;8.47;86.10
22649;BME280;11491;41.942;24.220;2023-09-19T01:56:40;90382.88;;;8.44;85.91
22649;BME280;11491;41.942;24.220;2023-09-19T01:59:13;90384.53;;;8.57;85.88
22649;BME280;11491;41.942;24.220;2023-09-19T02:01:42;90384.72;;;8.52;85.55
22649;BME280;11491;41.942;24.220;2023-09-19T02:04:11;90378.44;;;8.56;85.74
22649;BME280;11491;41.942;24.220;2023-09-19T02:06:39;90370.69;;;8.25;86.36
22649;BME280;11491;41.942;24.220;2023-09-19T02:09:06;90379.09;;;8.27;87.00
22649;BME280;11491;41.942;24.220;2023-09-19T02:11:34;90376.72;;;8.52;84.75
22649;BME280;11491;41.942;24.220;2023-09-19T02:14:02;90373.44;;;8.55;84.51
22649;BME280;11491;41.942;24.220;2023-09-19T02:16:30;90371.44;;;8.43;84.93
22649;BME280;11491;41.942;24.220;2023-09-19T02:18:58;90369.06;;;8.41;85.31
22649;BME280;11491;41.942;24.220;2023-09-19T02:21:25;90366.25;;;8.47;85.36
22649;BME280;11491;41.942;24.220;2023-09-19T02:23:55;90368.38;;;8.62;84.78
22649;BME280;11491;41.942;24.220;2023-09-19T02:26:22;90368.72;;;8.60;84.10
22649;BME280;11491;41.942;24.220;2023-09-19T02:28:50;90368.66;;;8.69;83.30
22649;BME280;11491;41.942;24.220;2023-09-19T02:31:16;90368.66;;;8.69;83.83
22649;BME280;11491;41.942;24.220;2023-09-19T02:33:43;90364.25;;;8.73;83.16
22649;BME280;11491;41.942;24.220;2023-09-19T02:36:13;90358.88;;;8.52;83.43
22649;BME280;11491;41.942;24.220;2023-09-19T02:38:42;90364.34;;;8.56;84.45
22649;BME280;11491;41.942;24.220;2023-09-19T02:41:09;90358.34;;;8.59;83.90
22649;BME280;11491;41.942;24.220;2023-09-19T02:43:36;90367.59;;;8.61;83.84
22649;BME280;11491;41.942;24.220;2023-09-19T02:46:03;90361.84;;;8.51;84.57
22649;BME280;11491;41.942;24.220;2023-09-19T02:48:30;90370.19;;;8.40;85.17
22649;BME280;11491;41.942;24.220;2023-09-19T02:50:58;90372.19;;;8.52;84.04
22649;BME280;11491;41.942;24.220;2023-09-19T02:53:26;90364.72;;;8.28;85.48
22649;BME280;11491;41.942;24.220;2023-09-19T02:55:53;90363.94;;;8.28;85.87
22649;BME280;11491;41.942;24.220;2023-09-19T02:58:20;90359.69;;;8.35;86.04
22649;BME280;11491;41.942;24.220;2023-09-19T03:00:49;90365.47;;;8.46;85.03
22649;BME280;11491;41.942;24.220;2023-09-19T03:03:17;90366.25;;;8.29;85.32
22649;BME280;11491;41.942;24.220;2023-09-19T03:05:44;90368.78;;;8.17;85.75
22649;BME280;11491;41.942;24.220;2023-09-19T03:08:12;90371.28;;;8.22;85.79
22649;BME280;11491;41.942;24.220;2023-09-19T03:10:42;90374.13;;;8.17;85.89
22649;BME280;11491;41.942;24.220;2023-09-19T03:13:09;90372.56;;;8.16;85.89
22649;BME280;11491;41.942;24.220;2023-09-19T03:15:36;90362.09;;;8.11;85.60
22649;BME280;11491;41.942;24.220;2023-09-19T03:18:04;90368.06;;;8.08;86.12
22649;BME280;11491;41.942;24.220;2023-09-19T03:20:31;90356.00;;;8.02;86.35
22649;BME280;11491;41.942;24.220;2023-09-19T03:22:58;90356.88;;;8.23;84.83
22649;BME280;11491;41.942;24.220;2023-09-19T03:25:25;90362.69;;;8.16;85.42
22649;BME280;11491;41.942;24.220;2023-09-19T03:27:56;90346.56;;;8.13;85.55
22649;BME280;11491;41.942;24.220;2023-09-19T03:30:23;90348.13;;;8.14;84.76
22649;BME280;11491;41.942;24.220;2023-09-19T03:32:50;90349.06;;;8.18;85.26
22649;BME280;11491;41.942;24.220;2023-09-19T03:35:17;90354.19;;;8.32;84.21
22649;BME280;11491;41.942;24.220;2023-09-19T03:37:44;90347.34;;;8.13;84.55
22649;BME280;11491;41.942;24.220;2023-09-19T03:40:12;90357.22;;;8.13;85.14
22649;BME280;11491;41.942;24.220;2023-09-19T03:42:39;90350.06;;;7.87;86.00
22649;BME280;11491;41.942;24.220;2023-09-19T03:45:09;90346.94;;;7.85;86.81
22649;BME280;11491;41.942;24.220;2023-09-19T03:47:37;90341.91;;;7.92;86.54
22649;BME280;11491;41.942;24.220;2023-09-19T03:50:05;90344.56;;;7.92;86.06
22649;BME280;11491;41.942;24.220;2023-09-19T03:52:33;90340.00;;;8.02;85.59
22649;BME280;11491;41.942;24.220;2023-09-19T03:55:00;90340.31;;;8.09;85.47
22649;BME280;11491;41.942;24.220;2023-09-19T03:57:29;90340.66;;;7.98;85.79
22649;BME280;11491;41.942;24.220;2023-09-19T03:59:56;90345.16;;;8.07;85.59
22649;BME280;11491;41.942;24.220;2023-09-19T04:02:25;90344.38;;;8.15;84.65
22649;BME280;11491;41.942;24.220;2023-09-19T04:04:52;90338.47;;;8.01;85.69
22649;BME280;11491;41.942;24.220;2023-09-19T04:07:19;90352.81;;;8.17;85.12
22649;BME280;11491;41.942;24.220;2023-09-19T04:09:47;90350.19;;;8.08;84.80
22649;BME280;11491;41.942;24.220;2023-09-19T04:12:14;90354.25;;;8.06;85.53
22649;BME280;11491;41.942;24.220;2023-09-19T04:14:42;90347.06;;;8.15;84.23
22649;BME280;11491;41.942;24.220;2023-09-19T04:17:09;90353.16;;;8.07;84.86
22649;BME280;11491;41.942;24.220;2023-09-19T04:19:37;90352.81;;;8.17;84.85
22649;BME280;11491;41.942;24.220;2023-09-19T04:22:04;90357.22;;;8.13;84.83
22649;BME280;11491;41.942;24.220;2023-09-19T04:24:31;90342.69;;;8.02;85.04
22649;BME280;11491;41.942;24.220;2023-09-19T04:26:59;90355.81;;;8.15;85.38
22649;BME280;11491;41.942;24.220;2023-09-19T04:29:26;90362.84;;;8.20;84.43
22649;BME280;11491;41.942;24.220;2023-09-19T04:31:55;90357.06;;;8.09;85.31
22649;BME280;11491;41.942;24.220;2023-09-19T04:34:22;90354.09;;;8.11;85.70
22649;BME280;11491;41.942;24.220;2023-09-19T04:36:51;90354.41;;;8.18;84.86
22649;BME280;11491;41.942;24.220;2023-09-19T04:39:18;90358.44;;;8.24;84.40
22649;BME280;11491;41.942;24.220;2023-09-19T04:41:44;90360.06;;;8.08;84.98
22649;BME280;11491;41.942;24.220;2023-09-19T04:44:13;90354.91;;;8.03;85.81
22649;BME280;11491;41.942;24.220;2023-09-19T04:46:39;90356.94;;;8.06;86.08
22649;BME280;11491;41.942;24.220;2023-09-19T04:49:06;90359.41;;;8.11;85.18
22649;BME280;11491;41.942;24.220;2023-09-19T04:51:33;90357.22;;;8.13;85.13
22649;BME280;11491;41.942;24.220;2023-09-19T04:54:03;90358.47;;;8.07;86.16
22649;BME280;11491;41.942;24.220;2023-09-19T04:56:30;90356.28;;;8.09;86.63
22649;BME280;11491;41.942;24.220;2023-09-19T04:58:57;90362.84;;;8.20;86.81
22649;BME280;11491;41.942;24.220;2023-09-19T05:01:25;90352.47;;;8.27;86.76
22649;BME280;11491;41.942;24.220;2023-09-19T05:03:52;90357.19;;;8.30;86.89
22649;BME280;11491;41.942;24.220;2023-09-19T05:06:19;90348.69;;;8.46;86.30
22649;BME280;11491;41.942;24.220;2023-09-19T05:08:46;90345.22;;;8.54;86.27
22649;BME280;11491;41.942;24.220;2023-09-19T05:11:17;90335.38;;;8.46;86.79
22649;BME280;11491;41.942;24.220;2023-09-19T05:13:43;90360.28;;;8.50;87.73
22649;BME280;11491;41.942;24.220;2023-09-19T05:16:10;90357.44;;;8.55;88.94
22649;BME280;11491;41.942;24.220;2023-09-19T05:18:37;90356.31;;;8.65;90.64
22649;BME280;11491;41.942;24.220;2023-09-19T05:21:05;90355.44;;;8.81;92.29
22649;BME280;11491;41.942;24.220;2023-09-19T05:23:32;90354.97;;;9.09;93.08
22649;BME280;11491;41.942;24.220;2023-09-19T05:25:58;90351.88;;;9.28;93.23
22649;BME280;11491;41.942;24.220;2023-09-19T05:28:26;90350.13;;;9.53;91.51
22649;BME280;11491;41.942;24.220;2023-09-19T05:31:00;90352.47;;;9.76;91.14
22649;BME280;11491;41.942;24.220;2023-09-19T05:33:27;90347.22;;;10.00;91.22
22649;BME280;11491;41.942;24.220;2023-09-19T05:35:57;90351.97;;;10.16;90.67
22649;BME280;11491;41.942;24.220;2023-09-19T05:38:23;90354.28;;;10.38;90.00
22649;BME280;11491;41.942;24.220;2023-09-19T05:40:52;90349.41;;;10.52;89.42
22649;BME280;11491;41.942;24.220;2023-09-19T05:43:19;90347.22;;;10.79;88.69
22649;BME280;11491;41.942;24.220;2023-09-19T05:45:47;90343.44;;;11.05;88.39
22649;BME280;11491;41.942;24.220;2023-09-19T05:48:17;90355.03;;;11.21;87.00
22649;BME280;11491;41.942;24.220;2023-09-19T05:50:44;90347.28;;;11.44;86.06
22649;BME280;11491;41.942;24.220;2023-09-19T05:53:14;90330.44;;;11.56;86.82
22649;BME280;11491;41.942;24.220;2023-09-19T05:55:41;90345.31;;;11.81;87.02
22649;BME280;11491;41.942;24.220;2023-09-19T05:58:08;90341.88;;;12.09;86.55
22649;BME280;11491;41.942;24.220;2023-09-19T06:00:35;90333.31;;;12.32;86.21
22649;BME280;11491;41.942;24.220;2023-09-19T06:03:03;90330.16;;;12.58;85.72
22649;BME280;11491;41.942;24.220;2023-09-19T06:05:31;90328.16;;;12.86;85.47
22649;BME280;11491;41.942;24.220;2023-09-19T06:07:58;90314.50;;;13.07;84.68
22649;BME280;11491;41.942;24.220;2023-09-19T06:10:26;90326.41;;;13.26;84.46
22649;BME280;11491;41.942;24.220;2023-09-19T06:12:53;90325.38;;;13.30;82.56
22649;BME280;11491;41.942;24.220;2023-09-19T06:15:20;90326.16;;;13.47;83.05
22649;BME280;11491;41.942;24.220;2023-09-19T06:17:51;90322.75;;;13.50;83.85
22649;BME280;11491;41.942;24.220;2023-09-19T06:20:22;90325.19;;;13.74;82.58
22649;BME280;11491;41.942;24.220;2023-09-19T06:22:51;90317.22;;;13.97;82.25
22649;BME280;11491;41.942;24.220;2023-09-19T06:25:18;90324.72;;;14.27;81.53
22649;BME280;11491;41.942;24.220;2023-09-19T06:27:45;90319.03;;;14.52;80.78
22649;BME280;11491;41.942;24.220;2023-09-19T06:30:12;90307.53;;;14.74;80.43
22649;BME280;11491;41.942;24.220;2023-09-19T06:32:40;90310.69;;;15.03;80.21
22649;BME280;11491;41.942;24.220;2023-09-19T06:35:09;90273.06;;;15.06;79.91
22649;BME280;11491;41.942;24.220;2023-09-19T06:37:38;90312.97;;;15.50;80.09
22649;BME280;11491;41.942;24.220;2023-09-19T06:40:07;90310.22;;;15.74;78.53
22649;BME280;11491;41.942;24.220;2023-09-19T06:42:39;90310.53;;;15.95;77.27
22649;BME280;11491;41.942;24.220;2023-09-19T06:45:07;90302.13;;;16.04;77.15
22649;BME280;11491;41.942;24.220;2023-09-19T06:47:34;90295.81;;;16.23;76.70
22649;BME280;11491;41.942;24.220;2023-09-19T06:50:00;90301.94;;;16.53;75.34
22649;BME280;11491;41.942;24.220;2023-09-19T06:52:30;90312.25;;;16.78;72.81
22649;BME280;11491;41.942;24.220;2023-09-19T06:54:59;90316.19;;;16.88;72.46
22649;BME280;11491;41.942;24.220;2023-09-19T06:57:28;90297.03;;;17.04;72.31
22649;BME280;11491;41.942;24.220;2023-09-19T06:59:55;90311.28;;;17.49;71.57
22649;BME280;11491;41.942;24.220;2023-09-19T07:02:22;90312.25;;;17.78;71.02
22649;BME280;11491;41.942;24.220;2023-09-19T07:04:49;90301.59;;;18.03;70.53
22649;BME280;11491;41.942;24.220;2023-09-19T07:07:16;90301.69;;;18.24;69.80
22649;BME280;11491;41.942;24.220;2023-09-19T07:09:42;90302.56;;;18.50;68.50
22649;BME280;11491;41.942;24.220;2023-09-19T07:12:10;90302.69;;;18.86;67.93
22649;BME280;11491;41.942;24.220;2023-09-19T07:14:38;90306.59;;;19.17;66.83
22649;BME280;11491;41.942;24.220;2023-09-19T07:17:05;90305.06;;;19.20;66.31
22649;BME280;11491;41.942;24.220;2023-09-19T07:19:33;90296.94;;;19.41;67.49
22649;BME280;11491;41.942;24.220;2023-09-19T07:21:59;90300.78;;;19.62;65.14
22649;BME280;11491;41.942;24.220;2023-09-19T07:24:28;90298.47;;;19.74;65.27
22649;BME280;11491;41.942;24.220;2023-09-19T07:26:54;90294.97;;;19.95;64.92
22649;BME280;11491;41.942;24.220;2023-09-19T07:29:23;90294.91;;;20.17;64.65
22649;BME280;11491;41.942;24.220;2023-09-19T07:31:51;90292.50;;;20.40;63.60
22649;BME280;11491;41.942;24.220;2023-09-19T07:34:18;90290.16;;;20.50;61.66
22649;BME280;11491;41.942;24.220;2023-09-19T07:36:46;90287.81;;;20.44;61.28
22649;BME280;11491;41.942;24.220;2023-09-19T07:39:13;90286.31;;;20.36;62.03
22649;BME280;11491;41.942;24.220;2023-09-19T07:41:39;90282.44;;;20.34;62.13
22649;BME280;11491;41.942;24.220;2023-09-19T07:44:07;90279.31;;;20.39;60.96
22649;BME280;11491;41.942;24.220;2023-09-19T07:46:36;90274.72;;;20.32;58.61
22649;BME280;11491;41.942;24.220;2023-09-19T07:49:03;90284.00;;;20.31;59.84
22649;BME280;11491;41.942;24.220;2023-09-19T07:51:30;90279.34;;;20.35;60.79
22649;BME280;11491;41.942;24.220;2023-09-19T07:53:58;90271.19;;;20.35;60.60
22649;BME280;11491;41.942;24.220;2023-09-19T07:56:25;90271.53;;;20.55;60.89
22649;BME280;11491;41.942;24.220;2023-09-19T07:58:53;90275.81;;;20.46;62.51
22649;BME280;11491;41.942;24.220;2023-09-19T08:01:19;90275.00;;;20.49;62.20
22649;BME280;11491;41.942;24.220;2023-09-19T08:03:50;90273.06;;;20.60;62.31
22649;BME280;11491;41.942;24.220;2023-09-19T08:06:17;90278.47;;;20.63;61.95
22649;BME280;11491;41.942;24.220;2023-09-19T08:08:44;90272.88;;;20.89;60.44
22649;BME280;11491;41.942;24.220;2023-09-19T08:11:11;90268.13;;;21.07;60.00
22649;BME280;11491;41.942;24.220;2023-09-19T08:13:38;90268.34;;;21.30;58.42
22649;BME280;11491;41.942;24.220;2023-09-19T08:16:09;90263.59;;;21.49;57.99
22649;BME280;11491;41.942;24.220;2023-09-19T08:18:36;90268.44;;;21.68;57.42
22649;BME280;11491;41.942;24.220;2023-09-19T08:21:07;90262.75;;;21.97;54.10
22649;BME280;11491;41.942;24.220;2023-09-19T09:37:38;90130.94;;;25.88;43.30
22649;BME280;11491;41.942;24.220;2023-09-19T09:40:06;90214.16;;;26.36;44.34
22649;BME280;11491;41.942;24.220;2023-09-19T09:42:45;90212.72;;;26.32;45.74
22649;BME280;11491;41.942;24.220;2023-09-19T09:45:17;90212.06;;;26.57;44.41
22649;BME280;11491;41.942;24.220;2023-09-19T09:47:45;90210.09;;;26.70;45.80
22649;BME280;11491;41.942;24.220;2023-09-19T09:50:26;90218.81;;;27.07;44.33
22649;BME280;11491;41.942;24.220;2023-09-19T09:53:19;90215.31;;;26.94;43.49
22649;BME280;11491;41.942;24.220;2023-09-19T09:56:00;90209.25;;;26.73;41.64
22649;BME280;11491;41.942;24.220;2023-09-19T09:58:28;90194.34;;;26.16;43.23
22649;BME280;11491;41.942;24.220;2023-09-19T10:00:58;90193.13;;;26.04;43.38
22649;BME280;11491;41.942;24.220;2023-09-19T10:03:36;90195.13;;;25.87;44.03
22649;BME280;11491;41.942;24.220;2023-09-19T10:06:07;90175.09;;;25.74;46.05
22649;BME280;11491;41.942;24.220;2023-09-19T10:09:02;90212.22;;;25.91;45.93
22649;BME280;11491;41.942;24.220;2023-09-19T10:11:40;90218.00;;;26.10;45.80
22649;BME280;11491;41.942;24.220;2023-09-19T10:14:09;90217.13;;;26.13;45.58
22649;BME280;11491;41.942;24.220;2023-09-19T10:16:41;90214.91;;;26.08;46.41
22649;BME280;11491;41.942;24.220;2023-09-19T10:19:16;90215.44;;;26.03;45.94
22649;BME280;11491;41.942;24.220;2023-09-19T10:21:43;90208.16;;;25.96;47.30
22649;BME280;11491;41.942;24.220;2023-09-19T10:24:13;90215.69;;;26.08;47.12
22649;BME280;11491;41.942;24.220;2023-09-19T10:26:43;90220.88;;;26.48;46.62
22649;BME280;11491;41.942;24.220;2023-09-19T10:29:13;90208.09;;;26.58;45.81
22649;BME280;11491;41.942;24.220;2023-09-19T10:31:44;90207.13;;;26.35;46.10
22649;BME280;11491;41.942;24.220;2023-09-19T10:34:14;90199.44;;;26.30;45.92
22649;BME280;11491;41.942;24.220;2023-09-19T10:36:44;90201.22;;;26.08;46.80
22649;BME280;11491;41.942;24.220;2023-09-19T10:39:15;90191.88;;;26.21;45.80
22649;BME280;11491;41.942;24.220;2023-09-19T10:41:50;90190.31;;;26.50;45.24
22649;BME280;11491;41.942;24.220;2023-09-19T10:44:21;90185.97;;;26.65;45.50
22649;BME280;11491;41.942;24.220;2023-09-19T10:46:51;90184.81;;;26.50;45.41
22649;BME280;11491;41.942;24.220;2023-09-19T10:49:19;90172.19;;;26.39;47.57
22649;BME280;11491;41.942;24.220;2023-09-19T10:51:47;90176.38;;;26.15;46.52
22649;BME280;11491;41.942;24.220;2023-09-19T10:54:18;90172.69;;;26.21;45.18
22649;BME280;11491;41.942;24.220;2023-09-19T10:56:50;90174.13;;;26.26;46.36
22649;BME280;11491;41.942;24.220;2023-09-19T10:59:19;90174.75;;;26.17;45.91
22649;BME280;11491;41.942;24.220;2023-09-19T11:01:48;90100.31;;;25.77;45.16
22649;BME280;11491;41.942;24.220;2023-09-19T11:04:24;90175.81;;;26.36;47.58
22649;BME280;11491;41.942;24.220;2023-09-19T11:07:02;90173.00;;;26.53;46.55
22649;BME280;11491;41.942;24.220;2023-09-19T11:09:47;90165.97;;;26.52;46.49
22649;BME280;11491;41.942;24.220;2023-09-19T11:12:49;90163.97;;;26.39;46.40
22649;BME280;11491;41.942;24.220;2023-09-19T11:16:02;90159.16;;;26.43;46.17
22649;BME280;11491;41.942;24.220;2023-09-19T11:18:51;90152.25;;;26.10;46.33
22649;BME280;11491;41.942;24.220;2023-09-19T11:21:52;90159.75;;;25.93;46.63
22649;BME280;11491;41.942;24.220;2023-09-19T11:24:31;90156.53;;;25.65;47.04
22649;BME280;11491;41.942;24.220;2023-09-19T11:27:15;90160.56;;;25.61;49.19
22649;BME280;11491;41.942;24.220;2023-09-19T11:29:44;90152.00;;;25.58;48.39
22649;BME280;11491;41.942;24.220;2023-09-19T11:32:10;90153.72;;;25.36;48.13
22649;BME280;11491;41.942;24.220;2023-09-19T11:34:41;90154.63;;;24.97;49.46
22649;BME280;11491;41.942;24.220;2023-09-19T11:40:13;90147.53;;;24.26;50.77
22649;BME280;11491;41.942;24.220;2023-09-19T11:42:44;90147.41;;;24.34;51.13
22649;BME280;11491;41.942;24.220;2023-09-19T11:48:23;90137.06;;;24.05;52.31
22649;BME280;11491;41.942;24.220;2023-09-19T11:50:52;90142.72;;;23.74;51.48
22649;BME280;11491;41.942;24.220;2023-09-19T11:53:20;90144.50;;;23.61;53.48
22649;BME280;11491;41.942;24.220;2023-09-19T11:55:47;90119.25;;;23.33;53.74
22649;BME280;11491;41.942;24.220;2023-09-19T11:58:17;90143.00;;;23.33;53.45
22649;BME280;11491;41.942;24.220;2023-09-19T12:00:45;90141.06;;;23.33;53.08
22649;BME280;11491;41.942;24.220;2023-09-19T12:03:13;90125.06;;;23.12;54.21
22649;BME280;11491;41.942;24.220;2023-09-19T12:05:40;90143.91;;;23.50;53.05
22649;BME280;11491;41.942;24.220;2023-09-19T12:08:07;90133.94;;;23.39;52.65
22649;BME280;11491;41.942;24.220;2023-09-19T12:10:45;90131.78;;;23.74;53.87
22649;BME280;11491;41.942;24.220;2023-09-19T12:13:16;90133.31;;;24.35;53.66
22649;BME280;11491;41.942;24.220;2023-09-19T12:15:44;90139.44;;;24.96;50.91
22649;BME280;11491;41.942;24.220;2023-09-19T12:18:26;90049.31;;;24.92;50.67
22649;BME280;11491;41.942;24.220;2023-09-19T12:20:53;90136.69;;;26.07;48.05
22649;BME280;11491;41.942;24.220;2023-09-19T12:23:20;90134.06;;;26.45;47.10
22649;BME280;11491;41.942;24.220;2023-09-19T12:25:47;90103.47;;;26.47;45.11
22649;BME280;11491;41.942;24.220;2023-09-19T12:28:19;90130.72;;;26.79;45.05
22649;BME280;11491;41.942;24.220;2023-09-19T12:30:48;90135.09;;;26.64;45.22
22649;BME280;11491;41.942;24.220;2023-09-19T12:33:16;90116.16;;;26.40;45.43
22649;BME280;11491;41.942;24.220;2023-09-19T12:35:45;90118.59;;;26.38;43.52
22649;BME280;11491;41.942;24.220;2023-09-19T12:38:22;90138.03;;;26.15;43.72
22649;BME280;11491;41.942;24.220;2023-09-19T12:40:50;90140.91;;;26.24;45.07
22649;BME280;11491;41.942;24.220;2023-09-19T12:43:19;90123.00;;;26.49;45.34
22649;BME280;11491;41.942;24.220;2023-09-19T12:45:47;90131.94;;;26.91;44.62
22649;BME280;11491;41.942;24.220;2023-09-19T12:48:21;90134.00;;;27.00;44.03
22649;BME280;11491;41.942;24.220;2023-09-19T12:51:02;90130.78;;;26.50;43.83
22649;BME280;11491;41.942;24.220;2023-09-19T12:53:32;90128.00;;;26.37;44.80
22649;BME280;11491;41.942;24.220;2023-09-19T12:55:59;90124.09;;;26.38;43.57
22649;BME280;11491;41.942;24.220;2023-09-19T12:58:28;90128.94;;;26.60;44.46
22649;BME280;11491;41.942;24.220;2023-09-19T13:00:56;90131.19;;;27.29;43.55
22649;BME280;11491;41.942;24.220;2023-09-19T13:03:26;90086.69;;;27.82;41.28
22649;BME280;11491;41.942;24.220;2023-09-19T13:05:54;90121.28;;;28.36;38.25
22649;BME280;11491;41.942;24.220;2023-09-19T13:08:25;90087.97;;;27.90;39.04
22649;BME280;11491;41.942;24.220;2023-09-19T13:11:09;90128.06;;;27.40;38.77
22649;BME280;11491;41.942;24.220;2023-09-19T13:13:40;90125.22;;;27.05;40.08
22649;BME280;11491;41.942;24.220;2023-09-19T13:16:09;90114.16;;;26.57;40.96
22649;BME280;11491;41.942;24.220;2023-09-19T13:18:44;90115.53;;;26.36;41.94
22649;BME280;11491;41.942;24.220;2023-09-19T13:21:12;90116.72;;;26.35;41.42
22649;BME280;11491;41.942;24.220;2023-09-19T13:23:47;90070.34;;;26.28;42.54
22649;BME280;11491;41.942;24.220;2023-09-19T13:26:14;90126.44;;;27.17;41.93
22649;BME280;11491;41.942;24.220;2023-09-19T13:28:42;90111.31;;;27.85;40.18
22649;BME280;11491;41.942;24.220;2023-09-19T13:31:09;90029.94;;;28.32;38.85
22649;BME280;11491;41.942;24.220;2023-09-19T13:33:42;90019.50;;;28.80;37.53
22649;BME280;11491;41.942;24.220;2023-09-19T13:36:09;90101.19;;;29.42;37.28
22649;BME280;11491;41.942;24.220;2023-09-19T13:38:37;90030.72;;;29.04;37.05
22649;BME280;11491;41.942;24.220;2023-09-19T13:41:04;90000.91;;;29.03;36.34
22649;BME280;11491;41.942;24.220;2023-09-19T13:43:31;90089.47;;;29.78;37.03
22649;BME280;11491;41.942;24.220;2023-09-19T13:46:02;90092.84;;;29.82;35.70
22649;BME280;11491;41.942;24.220;2023-09-19T13:48:29;90096.53;;;30.16;36.53
22649;BME280;11491;41.942;24.220;2023-09-19T13:50:56;90082.13;;;30.21;34.62
22649;BME280;11491;41.942;24.220;2023-09-19T13:53:23;90085.16;;;30.23;36.28
22649;BME280;11491;41.942;24.220;2023-09-19T13:55:51;90077.25;;;30.25;36.58
22649;BME280;11491;41.942;24.220;2023-09-19T13:58:18;90087.66;;;30.21;36.17
22649;BME280;11491;41.942;24.220;2023-09-19T14:00:46;90079.63;;;30.60;35.88
22649;BME280;11491;41.942;24.220;2023-09-19T14:03:14;90073.41;;;30.93;34.22
22649;BME280;11491;41.942;24.220;2023-09-19T14:05:41;90072.41;;;31.15;34.45
22649;BME280;11491;41.942;24.220;2023-09-19T14:08:08;90073.09;;;31.00;33.56
22649;BME280;11491;41.942;24.220;2023-09-19T14:10:35;90068.34;;;30.49;34.73
22649;BME280;11491;41.942;24.220;2023-09-19T14:13:02;90077.53;;;30.18;35.03
22649;BME280;11491;41.942;24.220;2023-09-19T14:15:28;90088.88;;;29.93;35.58
22649;BME280;11491;41.942;24.220;2023-09-19T14:18:00;90082.06;;;29.48;35.76
22649;BME280;11491;41.942;24.220;2023-09-19T14:20:28;90075.41;;;29.08;37.09
22649;BME280;11491;41.942;24.220;2023-09-19T14:22:56;90077.84;;;28.75;37.81
22649;BME280;11491;41.942;24.220;2023-09-19T14:25:24;90075.31;;;28.37;38.63
22649;BME280;11491;41.942;24.220;2023-09-19T14:27:51;90082.88;;;28.01;39.63
22649;BME280;11491;41.942;24.220;2023-09-19T14:30:18;90086.81;;;27.78;40.87